»·PEaware :: SKW3446 KLAX-KSFO

SKW3446 :: KLAX-KSFO

FLIGHT INFORMATION

Flight Status: Arrived
Operator:
SkyWest Airlines
More flights by this operator :: More flights under this callsign
Pilot: Anonymous 12181 (12181)
Aircraft: EMBRAER EMB-170/175
(E170)
More flights by this aircraft type
Origin: KLAX Los Angeles Intl
United States
Destination: KSFO San Francisco Intl
United States
More flights between these airports :: More routes between these airports
Route: SUMMR2 STOKD SERFR SERFR4
File this flight plan on PilotEdge
Remarks: RMK / SIMBRIEF
Altitude:
(Current/Filed)
34,000ft
Speed:
(Current/Filed)
419kts
Departed: 24-May-22 05:14 PM
Arrived: 24-May-22 06:11 PM
Distance/Time
Traveled:
293nm/0:57
Distance/Time
To Go:
Arrived

Flight Plot

Page will automatically refresh every two minutes.

Flight plan parsing failed; only flown route is shown


Map Options




Map Legend


Flown Route
Filed Route
Departure Airport
Arrival Airport
Navaid (VOR, NDB)
Fix

Horizontal Profiles

Position Reports

Time Latitude Longitude Heading Altitude Ground
Speed
24-May-22 16:34 33.940544 -118.401386 268 118ft 0kts
24-May-22 16:35 33.940544 -118.401386 268 118ft 0kts
24-May-22 16:36 33.940544 -118.401386 268 118ft 0kts
24-May-22 16:37 33.940544 -118.401386 268 118ft 0kts
24-May-22 16:38 33.940544 -118.401386 268 118ft 0kts
24-May-22 16:39 33.940544 -118.401386 268 118ft 0kts
24-May-22 16:40 33.940544 -118.401386 268 118ft 0kts
24-May-22 16:41 33.940544 -118.401386 268 118ft 0kts
24-May-22 16:42 33.940544 -118.401386 268 118ft 0kts
24-May-22 16:43 33.940544 -118.401386 268 118ft 0kts
24-May-22 16:44 33.940544 -118.401386 268 118ft 0kts
24-May-22 16:45 33.940544 -118.401386 268 118ft 0kts
24-May-22 16:46 33.940544 -118.401386 268 118ft 0kts
24-May-22 16:48 33.940544 -118.401386 268 118ft 0kts
24-May-22 16:49 33.940544 -118.401386 268 118ft 0kts
24-May-22 16:50 33.940544 -118.401386 268 118ft 0kts
24-May-22 16:51 33.940544 -118.401386 268 118ft 0kts
24-May-22 16:52 33.940544 -118.401386 268 118ft 0kts
24-May-22 16:53 33.940544 -118.401386 268 118ft 0kts
24-May-22 16:54 33.940544 -118.401386 268 118ft 0kts
24-May-22 16:55 33.940544 -118.401386 268 118ft 0kts
24-May-22 16:56 33.940544 -118.401386 268 118ft 0kts
24-May-22 16:57 33.940544 -118.401386 268 118ft 0kts
24-May-22 16:58 33.940544 -118.401386 268 118ft 0kts
24-May-22 16:59 33.940546 -118.401321 268 118ft 2kts
24-May-22 17:00 33.940762 -118.400721 192 117ft 2kts
24-May-22 17:01 33.940418 -118.400675 173 117ft 0kts
24-May-22 17:02 33.940418 -118.400675 173 117ft 0kts
24-May-22 17:03 33.940338 -118.400664 173 117ft 1kts
24-May-22 17:04 33.940231 -118.400648 173 117ft 0kts
24-May-22 17:05 33.940231 -118.400648 173 117ft 0kts
24-May-22 17:06 33.940231 -118.400648 173 117ft 0kts
24-May-22 17:07 33.939404 -118.400526 171 117ft 10kts
24-May-22 17:08 33.939187 -118.395890 84 109ft 14kts
24-May-22 17:09 33.939713 -118.390772 83 105ft 17kts
24-May-22 17:10 33.940289 -118.385166 83 103ft 16kts
24-May-22 17:10 33.940743 -118.380773 93 99ft 5kts
24-May-22 17:12 33.940725 -118.380696 115 99ft 0kts
24-May-22 17:13 33.939739 -118.380835 268 99ft 14kts
24-May-22 17:14 33.937087 -118.407337 262 696ft 179kts
24-May-22 17:15 33.931210 -118.481380 260 2420ft 250kts
24-May-22 17:15 33.924076 -118.553578 262 4512ft 261kts
24-May-22 17:17 33.917835 -118.660298 267 5387ft 276kts
24-May-22 17:18 33.917281 -118.754495 269 7886ft 294kts
24-May-22 17:19 33.917599 -118.854073 272 10393ft 303kts
24-May-22 17:19 33.920136 -118.939964 273 12501ft 321kts
24-May-22 17:20 33.940670 -119.050751 302 13004ft 357kts
24-May-22 17:21 33.992954 -119.153331 303 13843ft 358kts
24-May-22 17:22 34.064644 -119.233156 325 15640ft 358kts
24-May-22 17:24 34.160326 -119.315619 324 17733ft 369kts
24-May-22 17:24 34.230225 -119.375911 324 19238ft 373kts
24-May-22 17:25 34.314539 -119.448810 324 21035ft 372kts
24-May-22 17:26 34.397779 -119.520943 324 22817ft 367kts
24-May-22 17:27 34.475146 -119.611193 314 24656ft 403kts
24-May-22 17:28 34.554432 -119.708807 314 26461ft 412kts
24-May-22 17:29 34.634373 -119.807532 314 28240ft 424kts
24-May-22 17:30 34.718332 -119.911533 315 30053ft 431kts
24-May-22 17:31 34.800126 -120.013132 315 31815ft 417kts
24-May-22 17:32 34.879675 -120.112262 314 33567ft 412kts
24-May-22 17:33 34.959351 -120.211859 314 33888ft 410kts
24-May-22 17:34 35.038779 -120.311412 314 33888ft 414kts
24-May-22 17:35 35.120481 -120.409501 317 33900ft 416kts
24-May-22 17:36 35.205296 -120.504550 317 33884ft 415kts
24-May-22 17:37 35.290074 -120.599805 317 33882ft 413kts
24-May-22 17:38 35.373346 -120.693681 317 33884ft 412kts
24-May-22 17:39 35.457578 -120.788852 316 33879ft 412kts
24-May-22 17:40 35.547132 -120.877183 322 33836ft 414kts
24-May-22 17:41 35.637800 -120.961421 322 33834ft 415kts
24-May-22 17:42 35.728404 -121.045821 322 33831ft 408kts
24-May-22 17:43 35.818310 -121.129811 322 33833ft 405kts
24-May-22 17:44 35.906541 -121.212498 322 32738ft 402kts
24-May-22 17:45 35.995586 -121.296163 322 30932ft 408kts
24-May-22 17:46 36.086909 -121.379066 327 29125ft 413kts
24-May-22 17:47 36.182851 -121.453967 327 27356ft 404kts
24-May-22 17:48 36.276452 -121.527134 327 25858ft 394kts
24-May-22 17:49 36.367969 -121.598955 327 24351ft 386kts
24-May-22 17:50 36.457016 -121.669007 326 22845ft 378kts
24-May-22 17:51 36.544766 -121.738237 327 21361ft 370kts
24-May-22 17:52 36.630893 -121.806402 326 19854ft 365kts
24-May-22 17:53 36.714995 -121.873144 327 18368ft 358kts
24-May-22 17:54 36.807082 -121.912410 346 16802ft 348kts
24-May-22 17:55 36.897223 -121.937693 347 15164ft 320kts
24-May-22 17:56 36.979905 -121.964069 343 13554ft 306kts
24-May-22 17:57 37.060504 -121.995413 343 11937ft 301kts
24-May-22 17:58 37.139133 -122.026146 343 10336ft 295kts
24-May-22 17:59 37.211642 -122.054519 343 8747ft 269kts
24-May-22 18:00 37.282201 -122.082235 343 7141ft 264kts
24-May-22 18:01 37.350082 -122.108971 344 5995ft 240kts
24-May-22 18:02 37.407850 -122.130041 346 5983ft 199kts
24-May-22 18:03 37.462840 -122.148903 346 5146ft 208kts
24-May-22 18:04 37.517899 -122.170414 342 3625ft 200kts
24-May-22 18:05 37.550184 -122.212243 299 2528ft 157kts
24-May-22 18:06 37.570680 -122.260729 298 1688ft 148kts
24-May-22 18:07 37.588378 -122.302850 298 974ft 131kts
24-May-22 18:08 37.605263 -122.342978 297 319ft 130kts
24-May-22 18:09 37.619084 -122.376042 298 23ft 47kts
24-May-22 18:10 37.619601 -122.379355 230 28ft 0kts
24-May-22 18:11 37.619157 -122.380809 296 30ft 10kts
24-May-22 18:12 37.618402 -122.383358 238 30ft 5kts
24-May-22 18:13 37.618454 -122.384044 293 30ft 0kts
24-May-22 18:14 37.618458 -122.384056 293 30ft 0kts

Navigation Log

Ident Type
Flight plan parsing failed, navigation log unavailable